Aviation Digital Data Service (ADDS)

Output produced by TAFs form (0745 UTC 29 May 2017)
found at http://www.aviationweather.gov/adds/tafs/
 
METAR text: PGUM 290654Z 09008KT 10SM FEW021 31/25 A2984 RMK AO2 SLP095 T03060250 $
Conditions at: PGUM (AGANA , GU, US) observed 0654 UTC 29 May 2017
Temperature: 30.6°C (87°F)
Dewpoint: 25.0°C (77°F) [RH = 72%]
Pressure (altimeter): 29.84 inches Hg (1010.6 mb)
[Sea-level pressure: 1009.5 mb]
Winds: from the E (90 degrees) at 9 MPH (8 knots; 4.2 m/s)
Visibility: 10 or more miles (16+ km)
Ceiling: at least 12,000 feet AGL
Clouds: few clouds at 2100 feet AGL
Weather:
SOME DATA ABOVE MAY BE INACCURATE!!!
"$" is an indication the sensor requires maintenance

Forecast for: PGUM (AGANA , GU, US)
Text: PGUM 290520Z 2906/3012 10010KT P6SM VCSH FEW023
Forecast period: 0600 UTC 29 May 2017 to 1200 UTC 30 May 2017
Forecast type: FROM: standard forecast or significant change
Winds: from the E (100 degrees) at 12 MPH (10 knots; 5.2 m/s)
Visibility: 6 or more miles (10+ km)
Clouds: few clouds at 2300 feet AGL
Weather: VCSH  (showers in vicinity)